sensor_id;sensor_type;location;lat;lon;timestamp;pressure;altitude;pressure_sealevel;temperature;humidity
8280;BME280;8335;42.646;23.380;2023-08-30T00:01:27;146793.84;;;21.16;99.39
8280;BME280;8335;42.646;23.380;2023-08-30T00:03:53;146793.84;;;21.16;99.78
8280;BME280;8335;42.646;23.380;2023-08-30T00:06:21;146807.63;;;21.22;100.00
8280;BME280;8335;42.646;23.380;2023-08-30T00:08:49;146810.13;;;21.23;100.00
8280;BME280;8335;42.646;23.380;2023-08-30T00:11:16;146810.13;;;21.23;100.00
8280;BME280;8335;42.646;23.380;2023-08-30T00:13:42;146817.63;;;21.26;100.00
8280;BME280;8335;42.646;23.380;2023-08-30T00:16:09;146817.63;;;21.26;100.00
8280;BME280;8335;42.646;23.380;2023-08-30T00:18:38;146821.41;;;21.28;100.00
8280;BME280;8335;42.646;23.380;2023-08-30T00:21:05;146835.22;;;21.33;100.00
8280;BME280;8335;42.646;23.380;2023-08-30T00:23:32;146826.47;;;21.30;100.00
8280;BME280;8335;42.646;23.380;2023-08-30T00:26:00;146808.88;;;21.23;99.62
8280;BME280;8335;42.646;23.380;2023-08-30T00:28:27;146792.59;;;21.16;100.00
8280;BME280;8335;42.646;23.380;2023-08-30T00:30:54;146741.19;;;20.95;100.00
8280;BME280;8335;42.646;23.380;2023-08-30T00:33:21;146713.63;;;20.84;99.34
8280;BME280;8335;42.646;23.380;2023-08-30T00:35:55;146747.44;;;20.98;97.79
8280;BME280;8335;42.646;23.380;2023-08-30T00:38:22;146751.19;;;20.99;95.93
8280;BME280;8335;42.646;23.380;2023-08-30T00:40:48;146731.16;;;20.91;96.70
8280;BME280;8335;42.646;23.380;2023-08-30T00:43:17;146724.91;;;20.88;95.37
8280;BME280;8335;42.646;23.380;2023-08-30T00:45:44;146724.91;;;20.88;97.00
8280;BME280;8335;42.646;23.380;2023-08-30T00:48:11;146731.16;;;20.91;98.51
8280;BME280;8335;42.646;23.380;2023-08-30T00:50:39;146736.16;;;20.93;97.56
8280;BME280;8335;42.646;23.380;2023-08-30T00:53:07;146734.91;;;20.93;94.19
8280;BME280;8335;42.646;23.380;2023-08-30T00:55:34;146726.16;;;20.89;92.58
8280;BME280;8335;42.646;23.380;2023-08-30T00:58:02;146692.31;;;20.75;91.99
8280;BME280;8335;42.646;23.380;2023-08-30T01:00:30;146714.88;;;20.84;92.17
8280;BME280;8335;42.646;23.380;2023-08-30T01:02:57;146713.63;;;20.84;93.29
8280;BME280;8335;42.646;23.380;2023-08-30T01:05:24;146714.88;;;20.84;93.31
8280;BME280;8335;42.646;23.380;2023-08-30T01:07:51;146732.41;;;20.92;92.87
8280;BME280;8335;42.646;23.380;2023-08-30T01:10:18;146731.16;;;20.91;91.44
8280;BME280;8335;42.646;23.380;2023-08-30T01:12:57;146747.44;;;20.98;92.31
8280;BME280;8335;42.646;23.380;2023-08-30T01:15:27;146719.91;;;20.86;90.50
8280;BME280;8335;42.646;23.380;2023-08-30T01:17:56;146696.06;;;20.77;91.18
8280;BME280;8335;42.646;23.380;2023-08-30T01:20:25;146684.84;;;20.72;93.04
8280;BME280;8335;42.646;23.380;2023-08-30T01:22:58;146681.03;;;20.71;93.68
8280;BME280;8335;42.646;23.380;2023-08-30T01:25:32;146689.84;;;20.74;96.79
8280;BME280;8335;42.646;23.380;2023-08-30T01:28:04;146692.31;;;20.75;97.57
8280;BME280;8335;42.646;23.380;2023-08-30T01:30:32;146659.75;;;20.62;98.66
8280;BME280;8335;42.646;23.380;2023-08-30T01:33:00;146667.28;;;20.65;98.86
8280;BME280;8335;42.646;23.380;2023-08-30T01:35:28;146648.50;;;20.57;99.21
8280;BME280;8335;42.646;23.380;2023-08-30T01:37:58;146652.25;;;20.59;98.49
8280;BME280;8335;42.646;23.380;2023-08-30T01:40:27;146664.75;;;20.64;96.24
8280;BME280;8335;42.646;23.380;2023-08-30T01:42:55;146678.53;;;20.70;95.42
8280;BME280;8335;42.646;23.380;2023-08-30T01:45:26;146694.81;;;20.76;94.51
8280;BME280;8335;42.646;23.380;2023-08-30T01:47:54;146706.13;;;20.81;97.72
8280;BME280;8335;42.646;23.380;2023-08-30T01:50:21;146684.84;;;20.72;96.58
8280;BME280;8335;42.646;23.380;2023-08-30T01:52:49;146663.50;;;20.64;97.90
8280;BME280;8335;42.646;23.380;2023-08-30T01:55:18;146653.50;;;20.59;99.78
8280;BME280;8335;42.646;23.380;2023-08-30T01:57:47;146642.22;;;20.55;99.10
8280;BME280;8335;42.646;23.380;2023-08-30T02:00:14;146568.28;;;20.25;96.70
8280;BME280;8335;42.646;23.380;2023-08-30T02:02:42;146539.47;;;20.13;98.34
8280;BME280;8335;42.646;23.380;2023-08-30T02:05:09;146533.22;;;20.11;99.94
8280;BME280;8335;42.646;23.380;2023-08-30T02:07:41;146526.97;;;20.08;100.00
8280;BME280;8335;42.646;23.380;2023-08-30T02:10:12;146516.94;;;20.04;100.00
8280;BME280;8335;42.646;23.380;2023-08-30T02:12:45;146528.22;;;20.09;100.00
8280;BME280;8335;42.646;23.380;2023-08-30T02:15:13;146535.72;;;20.12;100.00
8280;BME280;8335;42.646;23.380;2023-08-30T02:17:42;146528.22;;;20.09;100.00
8280;BME280;8335;42.646;23.380;2023-08-30T02:20:10;146525.72;;;20.08;100.00
8280;BME280;8335;42.646;23.380;2023-08-30T02:22:37;146525.72;;;20.08;100.00
8280;BME280;8335;42.646;23.380;2023-08-30T02:25:05;146520.69;;;20.05;100.00
8280;BME280;8335;42.646;23.380;2023-08-30T02:27:33;146525.72;;;20.08;100.00
8280;BME280;8335;42.646;23.380;2023-08-30T02:30:00;146528.22;;;20.09;100.00
8280;BME280;8335;42.646;23.380;2023-08-30T02:32:28;146515.69;;;20.03;100.00
8280;BME280;8335;42.646;23.380;2023-08-30T02:34:56;146469.34;;;19.85;100.00
8280;BME280;8335;42.646;23.380;2023-08-30T02:37:23;146500.66;;;19.97;100.00
8280;BME280;8335;42.646;23.380;2023-08-30T02:39:50;146493.16;;;19.94;100.00
8280;BME280;8335;42.646;23.380;2023-08-30T02:42:17;146499.41;;;19.97;100.00
8280;BME280;8335;42.646;23.380;2023-08-30T02:44:44;146475.63;;;19.87;100.00
8280;BME280;8335;42.646;23.380;2023-08-30T02:47:10;146465.59;;;19.83;100.00
8280;BME280;8335;42.646;23.380;2023-08-30T02:49:37;146451.81;;;19.77;100.00
8280;BME280;8335;42.646;23.380;2023-08-30T02:52:06;146435.53;;;19.71;100.00
8280;BME280;8335;42.646;23.380;2023-08-30T02:54:33;146421.81;;;19.65;100.00
8280;BME280;8335;42.646;23.380;2023-08-30T02:56:59;146421.81;;;19.65;100.00
8280;BME280;8335;42.646;23.380;2023-08-30T02:59:26;146419.25;;;19.64;100.00
8280;BME280;8335;42.646;23.380;2023-08-30T03:01:53;146429.31;;;19.68;100.00
8280;BME280;8335;42.646;23.380;2023-08-30T03:04:20;146421.81;;;19.65;100.00
8280;BME280;8335;42.646;23.380;2023-08-30T03:06:47;146415.53;;;19.63;100.00
8280;BME280;8335;42.646;23.380;2023-08-30T03:09:15;146410.53;;;19.61;100.00
8280;BME280;8335;42.646;23.380;2023-08-30T03:11:41;146401.75;;;19.57;100.00
8280;BME280;8335;42.646;23.380;2023-08-30T03:14:08;146400.44;;;19.57;100.00
8280;BME280;8335;42.646;23.380;2023-08-30T03:16:35;146389.22;;;19.52;100.00
8280;BME280;8335;42.646;23.380;2023-08-30T03:19:02;146366.66;;;19.43;100.00
8280;BME280;8335;42.646;23.380;2023-08-30T03:21:29;146336.66;;;19.31;100.00
8280;BME280;8335;42.646;23.380;2023-08-30T03:23:55;146321.63;;;19.24;100.00
8280;BME280;8335;42.646;23.380;2023-08-30T03:26:24;146312.84;;;19.21;100.00
8280;BME280;8335;42.646;23.380;2023-08-30T03:28:50;146305.34;;;19.18;100.00
8280;BME280;8335;42.646;23.380;2023-08-30T03:31:19;146296.56;;;19.14;100.00
8280;BME280;8335;42.646;23.380;2023-08-30T03:33:46;146296.56;;;19.14;100.00
8280;BME280;8335;42.646;23.380;2023-08-30T03:36:14;146292.81;;;19.13;100.00
8280;BME280;8335;42.646;23.380;2023-08-30T03:38:41;146279.03;;;19.07;100.00
8280;BME280;8335;42.646;23.380;2023-08-30T03:41:08;146245.31;;;18.93;100.00
8280;BME280;8335;42.646;23.380;2023-08-30T03:43:36;146235.28;;;18.89;100.00
8280;BME280;8335;42.646;23.380;2023-08-30T03:46:03;146232.78;;;18.88;100.00
8280;BME280;8335;42.646;23.380;2023-08-30T03:48:30;146212.78;;;18.80;100.00
8280;BME280;8335;42.646;23.380;2023-08-30T03:50:57;146205.25;;;18.77;100.00
8280;BME280;8335;42.646;23.380;2023-08-30T03:53:24;146197.75;;;18.74;100.00
8280;BME280;8335;42.646;23.380;2023-08-30T03:55:51;146192.75;;;18.72;100.00
8280;BME280;8335;42.646;23.380;2023-08-30T03:58:19;146185.22;;;18.69;100.00
8280;BME280;8335;42.646;23.380;2023-08-30T04:00:47;146196.50;;;18.74;100.00
8280;BME280;8335;42.646;23.380;2023-08-30T04:03:15;146197.75;;;18.74;100.00
8280;BME280;8335;42.646;23.380;2023-08-30T04:05:43;146186.47;;;18.69;100.00
8280;BME280;8335;42.646;23.380;2023-08-30T04:08:10;146217.75;;;18.82;100.00
8280;BME280;8335;42.646;23.380;2023-08-30T04:10:37;146222.75;;;18.84;100.00
8280;BME280;8335;42.646;23.380;2023-08-30T04:13:04;146250.28;;;18.95;100.00
8280;BME280;8335;42.646;23.380;2023-08-30T04:15:32;146295.31;;;19.14;100.00
8280;BME280;8335;42.646;23.380;2023-08-30T04:18:00;146344.13;;;19.34;100.00
8280;BME280;8335;42.646;23.380;2023-08-30T04:20:27;146421.81;;;19.65;100.00
8280;BME280;8335;42.646;23.380;2023-08-30T04:22:54;146516.94;;;20.04;100.00
8280;BME280;8335;42.646;23.380;2023-08-30T04:25:22;146653.50;;;20.59;97.48
8280;BME280;8335;42.646;23.380;2023-08-30T04:27:49;146728.66;;;20.90;95.10
8280;BME280;8335;42.646;23.380;2023-08-30T04:30:16;146802.56;;;21.20;92.90
8280;BME280;8335;42.646;23.380;2023-08-30T04:32:42;146892.88;;;21.57;91.38
8280;BME280;8335;42.646;23.380;2023-08-30T04:35:11;147068.44;;;22.28;88.76
8280;BME280;8335;42.646;23.380;2023-08-30T04:37:37;147269.22;;;23.10;83.59
8280;BME280;8335;42.646;23.380;2023-08-30T04:40:06;147466.34;;;23.89;78.53
8280;BME280;8335;42.646;23.380;2023-08-30T04:42:33;147643.44;;;24.61;74.58
8280;BME280;8335;42.646;23.380;2023-08-30T04:45:00;147828.22;;;25.36;71.31
8280;BME280;8335;42.646;23.380;2023-08-30T04:47:28;148009.25;;;26.10;68.09
8280;BME280;8335;42.646;23.380;2023-08-30T04:49:55;148157.69;;;26.70;64.46
8280;BME280;8335;42.646;23.380;2023-08-30T04:52:23;148210.53;;;26.91;64.18
8280;BME280;8335;42.646;23.380;2023-08-30T04:54:50;148165.25;;;26.73;64.17
8280;BME280;8335;42.646;23.380;2023-08-30T04:57:17;147970.28;;;25.94;66.55
8280;BME280;8335;42.646;23.380;2023-08-30T04:59:45;147814.38;;;25.31;71.03
8280;BME280;8335;42.646;23.380;2023-08-30T05:02:12;147691.19;;;24.81;73.29
8280;BME280;8335;42.646;23.380;2023-08-30T05:04:39;147526.59;;;24.14;76.01
8280;BME280;8335;42.646;23.380;2023-08-30T05:07:06;147406.09;;;23.65;78.73
8280;BME280;8335;42.646;23.380;2023-08-30T05:09:34;147339.50;;;23.38;81.06
8280;BME280;8335;42.646;23.380;2023-08-30T05:12:01;147318.19;;;23.29;82.21
8280;BME280;8335;42.646;23.380;2023-08-30T05:14:28;147352.06;;;23.43;79.71
8280;BME280;8335;42.646;23.380;2023-08-30T05:16:55;147349.53;;;23.42;77.70
8280;BME280;8335;42.646;23.380;2023-08-30T05:19:22;147355.84;;;23.45;79.04
8280;BME280;8335;42.646;23.380;2023-08-30T05:21:48;147305.63;;;23.24;78.66
8280;BME280;8335;42.646;23.380;2023-08-30T05:24:16;147291.81;;;23.19;79.51
8280;BME280;8335;42.646;23.380;2023-08-30T05:26:45;147330.69;;;23.34;79.44
8280;BME280;8335;42.646;23.380;2023-08-30T05:29:12;147385.91;;;23.57;78.68
8280;BME280;8335;42.646;23.380;2023-08-30T05:31:39;147491.41;;;24.00;75.90
8280;BME280;8335;42.646;23.380;2023-08-30T05:34:06;147603.28;;;24.45;74.13
8280;BME280;8335;42.646;23.380;2023-08-30T05:36:33;147717.56;;;24.91;72.33
8280;BME280;8335;42.646;23.380;2023-08-30T05:39:00;147888.53;;;25.61;70.87
8280;BME280;8335;42.646;23.380;2023-08-30T05:41:27;148048.22;;;26.25;67.34
8280;BME280;8335;42.646;23.380;2023-08-30T05:43:55;148265.91;;;27.13;64.79
8280;BME280;8335;42.646;23.380;2023-08-30T05:46:22;148466.09;;;27.94;61.42
8280;BME280;8335;42.646;23.380;2023-08-30T05:48:49;148721.81;;;28.98;57.09
8280;BME280;8335;42.646;23.380;2023-08-30T05:51:15;148971.34;;;29.99;54.06
8280;BME280;8335;42.646;23.380;2023-08-30T05:53:42;149144.16;;;30.68;51.41
8280;BME280;8335;42.646;23.380;2023-08-30T05:56:09;149281.69;;;31.24;49.41
8280;BME280;8335;42.646;23.380;2023-08-30T05:58:36;149401.53;;;31.72;46.67
8280;BME280;8335;42.646;23.380;2023-08-30T06:01:04;149467.19;;;31.99;45.56
8280;BME280;8335;42.646;23.380;2023-08-30T06:03:33;149534.06;;;32.26;44.66
8280;BME280;8335;42.646;23.380;2023-08-30T06:05:59;149625.00;;;32.63;44.31
8280;BME280;8335;42.646;23.380;2023-08-30T06:08:27;149694.50;;;32.91;43.24
8280;BME280;8335;42.646;23.380;2023-08-30T06:10:53;149728.59;;;33.04;42.09
8280;BME280;8335;42.646;23.380;2023-08-30T06:13:20;149704.59;;;32.95;41.99
8280;BME280;8335;42.646;23.380;2023-08-30T06:15:50;149646.44;;;32.71;41.92
8280;BME280;8335;42.646;23.380;2023-08-30T06:18:18;149737.44;;;33.08;41.94
8280;BME280;8335;42.646;23.380;2023-08-30T06:20:45;149733.63;;;33.06;41.04
8280;BME280;8335;42.646;23.380;2023-08-30T06:23:13;149800.56;;;33.33;40.74
8280;BME280;8335;42.646;23.380;2023-08-30T06:25:40;149909.22;;;33.77;40.65
8280;BME280;8335;42.646;23.380;2023-08-30T06:28:07;150002.75;;;34.15;40.04
8280;BME280;8335;42.646;23.380;2023-08-30T06:30:33;150098.88;;;34.54;38.48
8280;BME280;8335;42.646;23.380;2023-08-30T06:33:00;150164.59;;;34.80;37.16
8280;BME280;8335;42.646;23.380;2023-08-30T06:35:29;150172.16;;;34.83;36.47
8280;BME280;8335;42.646;23.380;2023-08-30T06:37:55;150259.44;;;35.18;36.58
8280;BME280;8335;42.646;23.380;2023-08-30T06:40:22;150350.53;;;35.55;35.54
8280;BME280;8335;42.646;23.380;2023-08-30T06:42:49;150411.25;;;35.79;35.54
8280;BME280;8335;42.646;23.380;2023-08-30T06:45:16;150432.75;;;35.88;35.22
8280;BME280;8335;42.646;23.380;2023-08-30T06:47:43;150527.63;;;36.26;35.29
8280;BME280;8335;42.646;23.380;2023-08-30T06:50:09;150630.16;;;36.68;34.36
8280;BME280;8335;42.646;23.380;2023-08-30T06:52:38;150687.16;;;36.90;34.28
8280;BME280;8335;42.646;23.380;2023-08-30T06:55:05;150769.44;;;37.24;33.58
8280;BME280;8335;42.646;23.380;2023-08-30T06:57:32;150820.13;;;37.44;32.15
8280;BME280;8335;42.646;23.380;2023-08-30T06:59:58;150875.81;;;37.66;32.25
8280;BME280;8335;42.646;23.380;2023-08-30T07:02:33;150941.66;;;37.93;30.26
8280;BME280;8335;42.646;23.380;2023-08-30T07:05:00;150969.53;;;38.04;30.43
8280;BME280;8335;42.646;23.380;2023-08-30T07:07:27;150998.66;;;38.16;30.60
8280;BME280;8335;42.646;23.380;2023-08-30T07:09:55;151008.78;;;38.20;29.38
8280;BME280;8335;42.646;23.380;2023-08-30T07:12:22;150961.94;;;38.01;29.30
8280;BME280;8335;42.646;23.380;2023-08-30T07:14:48;151031.59;;;38.29;29.33
8280;BME280;8335;42.646;23.380;2023-08-30T07:17:15;151011.28;;;38.21;28.63
8280;BME280;8335;42.646;23.380;2023-08-30T07:19:42;151026.53;;;38.27;28.19
8280;BME280;8335;42.646;23.380;2023-08-30T07:22:09;151098.72;;;38.56;28.20
8280;BME280;8335;42.646;23.380;2023-08-30T07:24:36;151193.81;;;38.94;28.16
8280;BME280;8335;42.646;23.380;2023-08-30T07:27:04;151239.38;;;39.13;26.95
8280;BME280;8335;42.646;23.380;2023-08-30T07:29:31;151235.59;;;39.11;27.18
8280;BME280;8335;42.646;23.380;2023-08-30T07:31:58;151254.66;;;39.19;27.09
8280;BME280;8335;42.646;23.380;2023-08-30T07:34:25;151307.84;;;39.40;27.00
8280;BME280;8335;42.646;23.380;2023-08-30T07:36:54;151377.59;;;39.68;25.84
8280;BME280;8335;42.646;23.380;2023-08-30T07:39:21;151416.88;;;39.84;26.17
8280;BME280;8335;42.646;23.380;2023-08-30T07:41:47;151451.09;;;39.98;25.62
8280;BME280;8335;42.646;23.380;2023-08-30T07:44:16;151484.13;;;40.11;25.68
8280;BME280;8335;42.646;23.380;2023-08-30T07:46:43;151528.44;;;40.29;25.51
8280;BME280;8335;42.646;23.380;2023-08-30T07:49:09;151553.84;;;40.39;25.44
8280;BME280;8335;42.646;23.380;2023-08-30T07:51:36;151439.69;;;39.93;25.66
8280;BME280;8335;42.646;23.380;2023-08-30T07:54:03;151107.63;;;38.60;27.47
8280;BME280;8335;42.646;23.380;2023-08-30T07:56:30;151075.94;;;38.47;27.82
8280;BME280;8335;42.646;23.380;2023-08-30T07:58:57;151081.00;;;38.49;27.29
8280;BME280;8335;42.646;23.380;2023-08-30T08:01:25;151107.63;;;38.60;28.11
8280;BME280;8335;42.646;23.380;2023-08-30T08:03:52;151212.81;;;39.02;27.56
8280;BME280;8335;42.646;23.380;2023-08-30T08:06:19;151253.38;;;39.18;26.74
8280;BME280;8335;42.646;23.380;2023-08-30T08:08:45;151183.66;;;38.90;27.08
8280;BME280;8335;42.646;23.380;2023-08-30T08:11:12;150845.41;;;37.54;28.83
8280;BME280;8335;42.646;23.380;2023-08-30T08:13:39;150821.38;;;37.44;28.68
8280;BME280;8335;42.646;23.380;2023-08-30T08:16:06;150839.09;;;37.52;28.64
8280;BME280;8335;42.646;23.380;2023-08-30T08:18:34;150908.78;;;37.80;27.96
8280;BME280;8335;42.646;23.380;2023-08-30T08:21:01;150930.28;;;37.88;27.77
8280;BME280;8335;42.646;23.380;2023-08-30T08:23:29;150993.56;;;38.14;27.83
8280;BME280;8335;42.646;23.380;2023-08-30T08:25:59;150887.16;;;37.71;29.72
8280;BME280;8335;42.646;23.380;2023-08-30T08:28:26;150851.72;;;37.57;29.20
8280;BME280;8335;42.646;23.380;2023-08-30T08:30:53;150779.53;;;37.28;29.64
8280;BME280;8335;42.646;23.380;2023-08-30T08:33:20;150766.91;;;37.23;29.47
8280;BME280;8335;42.646;23.380;2023-08-30T08:35:50;150494.75;;;36.13;30.74
8280;BME280;8335;42.646;23.380;2023-08-30T08:38:16;150470.72;;;36.03;30.69
8280;BME280;8335;42.646;23.380;2023-08-30T08:40:43;150594.75;;;36.53;30.41
8280;BME280;8335;42.646;23.380;2023-08-30T08:43:10;150735.25;;;37.10;29.32
8280;BME280;8335;42.646;23.380;2023-08-30T08:45:38;150709.91;;;37.00;29.40
8280;BME280;8335;42.646;23.380;2023-08-30T08:48:05;150521.31;;;36.24;29.66
8280;BME280;8335;42.646;23.380;2023-08-30T08:50:32;150564.38;;;36.41;29.82
8280;BME280;8335;42.646;23.380;2023-08-30T08:53:01;150456.81;;;35.98;29.31
8280;BME280;8335;42.646;23.380;2023-08-30T08:55:29;150390.97;;;35.71;31.07
8280;BME280;8335;42.646;23.380;2023-08-30T08:57:57;150432.75;;;35.88;30.45
8280;BME280;8335;42.646;23.380;2023-08-30T09:00:24;150485.91;;;36.09;30.69
8280;BME280;8335;42.646;23.380;2023-08-30T09:02:52;150565.63;;;36.42;28.65
8280;BME280;8335;42.646;23.380;2023-08-30T09:05:20;150574.50;;;36.45;27.85
8280;BME280;8335;42.646;23.380;2023-08-30T09:07:47;150680.84;;;36.88;28.02
8280;BME280;8335;42.646;23.380;2023-08-30T09:10:15;150674.47;;;36.85;27.63
8280;BME280;8335;42.646;23.380;2023-08-30T09:12:42;150808.69;;;37.39;27.62
8280;BME280;8335;42.646;23.380;2023-08-30T09:15:09;150950.53;;;37.96;26.29
8280;BME280;8335;42.646;23.380;2023-08-30T09:17:36;150983.47;;;38.10;25.90
8280;BME280;8335;42.646;23.380;2023-08-30T09:20:08;151024.03;;;38.26;26.62
8280;BME280;8335;42.646;23.380;2023-08-30T09:22:38;150974.56;;;38.06;26.67
8280;BME280;8335;42.646;23.380;2023-08-30T09:25:07;150760.53;;;37.20;26.87
8280;BME280;8335;42.646;23.380;2023-08-30T09:27:36;150558.06;;;36.38;29.33
8280;BME280;8335;42.646;23.380;2023-08-30T09:30:05;150440.34;;;35.91;28.93
8280;BME280;8335;42.646;23.380;2023-08-30T09:32:38;150504.88;;;36.17;29.80
8280;BME280;8335;42.646;23.380;2023-08-30T09:35:06;150546.59;;;36.34;28.40
8280;BME280;8335;42.646;23.380;2023-08-30T09:37:33;150404.91;;;35.77;29.21
8280;BME280;8335;42.646;23.380;2023-08-30T09:39:59;150342.97;;;35.52;29.84
8280;BME280;8335;42.646;23.380;2023-08-30T09:42:26;150278.41;;;35.26;30.56
8280;BME280;8335;42.646;23.380;2023-08-30T09:44:56;150302.41;;;35.36;30.74
8280;BME280;8335;42.646;23.380;2023-08-30T09:47:24;150361.91;;;35.60;30.04
8280;BME280;8335;42.646;23.380;2023-08-30T09:49:54;150409.94;;;35.79;29.45
8280;BME280;8335;42.646;23.380;2023-08-30T09:52:24;150427.66;;;35.86;28.92
8280;BME280;8335;42.646;23.380;2023-08-30T09:54:51;150431.47;;;35.88;29.08
8280;BME280;8335;42.646;23.380;2023-08-30T09:57:19;150518.81;;;36.23;28.26
8280;BME280;8335;42.646;23.380;2023-08-30T09:59:48;150530.16;;;36.27;28.58
8280;BME280;8335;42.646;23.380;2023-08-30T10:02:17;150489.69;;;36.11;29.44
8280;BME280;8335;42.646;23.380;2023-08-30T10:04:45;150544.09;;;36.33;28.99
8280;BME280;8335;42.646;23.380;2023-08-30T10:07:13;150706.13;;;36.98;28.75
8280;BME280;8335;42.646;23.380;2023-08-30T10:09:41;150821.38;;;37.44;27.35
8280;BME280;8335;42.646;23.380;2023-08-30T10:12:10;150822.63;;;37.45;28.50
8280;BME280;8335;42.646;23.380;2023-08-30T10:14:37;150749.19;;;37.15;27.27
8280;BME280;8335;42.646;23.380;2023-08-30T10:17:05;150602.31;;;36.56;28.02
8280;BME280;8335;42.646;23.380;2023-08-30T10:19:36;150536.50;;;36.30;28.30
8280;BME280;8335;42.646;23.380;2023-08-30T10:22:05;150542.81;;;36.32;28.01
8280;BME280;8335;42.646;23.380;2023-08-30T10:24:37;150569.41;;;36.43;28.27
8280;BME280;8335;42.646;23.380;2023-08-30T10:27:06;150512.44;;;36.20;28.90
8280;BME280;8335;42.646;23.380;2023-08-30T10:29:35;150437.84;;;35.90;28.05
8280;BME280;8335;42.646;23.380;2023-08-30T10:32:04;150509.94;;;36.19;28.70
8280;BME280;8335;42.646;23.380;2023-08-30T10:34:36;150582.06;;;36.48;28.98
8280;BME280;8335;42.646;23.380;2023-08-30T10:37:05;150575.78;;;36.46;28.13
8280;BME280;8335;42.646;23.380;2023-08-30T10:39:34;150585.88;;;36.50;28.57
8280;BME280;8335;42.646;23.380;2023-08-30T10:42:08;150420.06;;;35.83;29.36
8280;BME280;8335;42.646;23.380;2023-08-30T10:44:46;150318.91;;;35.42;30.58
8280;BME280;8335;42.646;23.380;2023-08-30T10:47:18;150320.16;;;35.43;30.50
8280;BME280;8335;42.646;23.380;2023-08-30T10:49:48;150298.63;;;35.34;30.58
8280;BME280;8335;42.646;23.380;2023-08-30T10:52:15;150234.19;;;35.08;31.18
8280;BME280;8335;42.646;23.380;2023-08-30T10:54:42;150139.31;;;34.70;31.48
8280;BME280;8335;42.646;23.380;2023-08-30T10:57:13;149990.16;;;34.10;32.40
8280;BME280;8335;42.646;23.380;2023-08-30T10:59:40;149923.13;;;33.83;32.15
8280;BME280;8335;42.646;23.380;2023-08-30T11:02:07;149635.13;;;32.67;33.16
8280;BME280;8335;42.646;23.380;2023-08-30T11:04:39;149583.34;;;32.46;35.24
8280;BME280;8335;42.646;23.380;2023-08-30T11:07:08;149470.94;;;32.00;35.36
8280;BME280;8335;42.646;23.380;2023-08-30T11:09:37;149433.09;;;31.85;35.61
8280;BME280;8335;42.646;23.380;2023-08-30T11:12:06;149455.84;;;31.94;36.42
8280;BME280;8335;42.646;23.380;2023-08-30T11:14:33;149463.41;;;31.97;35.13
8280;BME280;8335;42.646;23.380;2023-08-30T11:17:00;149450.75;;;31.92;35.56
8280;BME280;8335;42.646;23.380;2023-08-30T11:19:29;149448.25;;;31.91;35.36
8280;BME280;8335;42.646;23.380;2023-08-30T11:21:56;149430.59;;;31.84;36.14
8280;BME280;8335;42.646;23.380;2023-08-30T11:24:24;149401.53;;;31.72;35.69
8280;BME280;8335;42.646;23.380;2023-08-30T11:26:55;149359.88;;;31.56;37.11
8280;BME280;8335;42.646;23.380;2023-08-30T11:29:22;149335.94;;;31.46;36.59
8280;BME280;8335;42.646;23.380;2023-08-30T11:31:49;149315.75;;;31.38;36.97
8280;BME280;8335;42.646;23.380;2023-08-30T11:34:19;149294.31;;;31.29;36.89
8280;BME280;8335;42.646;23.380;2023-08-30T11:36:47;149284.19;;;31.25;36.71
8280;BME280;8335;42.646;23.380;2023-08-30T11:39:13;149256.38;;;31.14;36.45
8280;BME280;8335;42.646;23.380;2023-08-30T11:41:43;149203.41;;;30.92;35.79
8280;BME280;8335;42.646;23.380;2023-08-30T11:44:10;149256.38;;;31.14;36.69
8280;BME280;8335;42.646;23.380;2023-08-30T11:46:37;149239.97;;;31.07;36.58
8280;BME280;8335;42.646;23.380;2023-08-30T11:49:04;149208.50;;;30.94;36.22
8280;BME280;8335;42.646;23.380;2023-08-30T11:51:31;149204.66;;;30.93;36.76
8280;BME280;8335;42.646;23.380;2023-08-30T11:53:59;149174.44;;;30.81;35.89
8280;BME280;8335;42.646;23.380;2023-08-30T11:56:28;149158.03;;;30.74;38.12
8280;BME280;8335;42.646;23.380;2023-08-30T11:58:56;149083.59;;;30.44;36.75
8280;BME280;8335;42.646;23.380;2023-08-30T12:01:23;148999.13;;;30.10;37.37
8280;BME280;8335;42.646;23.380;2023-08-30T12:03:50;148982.69;;;30.03;37.91
8280;BME280;8335;42.646;23.380;2023-08-30T12:06:17;148968.81;;;29.98;37.78
8280;BME280;8335;42.646;23.380;2023-08-30T12:08:44;148996.63;;;30.09;37.09
8280;BME280;8335;42.646;23.380;2023-08-30T12:11:17;149041.97;;;30.27;36.20
8280;BME280;8335;42.646;23.380;2023-08-30T12:13:46;149033.16;;;30.24;35.93
8280;BME280;8335;42.646;23.380;2023-08-30T12:16:17;148999.13;;;30.10;37.64
8280;BME280;8335;42.646;23.380;2023-08-30T12:18:45;148999.13;;;30.10;37.31
8280;BME280;8335;42.646;23.380;2023-08-30T12:21:13;148951.16;;;29.91;37.91
8280;BME280;8335;42.646;23.380;2023-08-30T12:23:41;149033.16;;;30.24;36.35
8280;BME280;8335;42.646;23.380;2023-08-30T12:26:08;149053.34;;;30.32;36.80
8280;BME280;8335;42.646;23.380;2023-08-30T12:28:37;149074.75;;;30.40;35.96
8280;BME280;8335;42.646;23.380;2023-08-30T12:31:04;149087.38;;;30.46;35.27
8280;BME280;8335;42.646;23.380;2023-08-30T12:33:33;149121.44;;;30.59;35.61
8280;BME280;8335;42.646;23.380;2023-08-30T12:36:00;149132.75;;;30.64;36.02
8280;BME280;8335;42.646;23.380;2023-08-30T12:38:29;149194.59;;;30.89;34.96
8280;BME280;8335;42.646;23.380;2023-08-30T12:40:56;149214.78;;;30.97;34.27
8280;BME280;8335;42.646;23.380;2023-08-30T12:43:23;149251.34;;;31.12;34.40
8280;BME280;8335;42.646;23.380;2023-08-30T12:45:50;149239.97;;;31.07;34.04
8280;BME280;8335;42.646;23.380;2023-08-30T12:48:18;149319.53;;;31.39;33.90
8280;BME280;8335;42.646;23.380;2023-08-30T12:50:47;149346.00;;;31.50;33.33
8280;BME280;8335;42.646;23.380;2023-08-30T12:53:14;149363.66;;;31.57;33.32
8280;BME280;8335;42.646;23.380;2023-08-30T12:55:42;149330.88;;;31.44;32.83
8280;BME280;8335;42.646;23.380;2023-08-30T12:58:09;149328.31;;;31.43;32.97
8280;BME280;8335;42.646;23.380;2023-08-30T13:00:37;149334.66;;;31.45;32.68